EGPF/GLA METAR and TAF weather

Enter ICAO airport designator
Station Type Date Time Source
EGPF METAR 2019/08/25 13:20 UTC NOAA

EGPF 251320Z AUTO 07007KT 9999 NCD 26/18 Q1017


Station Type Date Time Source
EGPF Decoded METAR 2019/08/25 13:20 UTC NOAA

Station name not available
Aug 25, 2019 - 09:20 AM EDT / 2019.08.25 1320 UTC
Wind: from the ENE (070 degrees) at 8 MPH (7 KT):0
Visibility: greater than 7 mile(s):0
Temperature: 78 F (26 C)
Dew Point: 64 F (18 C)
Relative Humidity: 61%
Pressure (altimeter): 30.03 in. Hg (1017 hPa)
ob: EGPF 251320Z AUTO 07007KT 9999 NCD 26/18 Q1017
cycle: 13

Station Type Date Time Source
EGPF TAF 2019/08/25 12:09 UTC NOAA

TAF EGPF 251055Z 2512/2612 07005KT CAVOK
BECMG 2514/2517 21010KT
BECMG 2521/2524 BKN008 PROB30 2522/2607 VRB03KT 6000 BKN004
BECMG 2607/2610 SCT020

Example: see airport list